Time;durP1;ratioP1;P1;durP2;ratioP2;P2;SDS_P1;SDS_P2;PMS_P1;PMS_P2;Temp;Humidity;BMP_temperature;BMP_pressure;BME280_temperature;BME280_humidity;BME280_pressure;Samples;Min_cycle;Max_cycle;Signal;HPM_P1;HPM_P2
2022/04/09 00:00:15;;;;;;;3.57;2.63;;;5.10;99.90;;;6.02;100.00;-19931.78;5032614;28;20259;-55
2022/04/09 00:02:43;;;;;;;4.27;2.77;;;5.20;99.90;;;6.03;100.00;-19932.13;5032278;28;20257;-56
2022/04/09 00:05:12;;;;;;;2.90;2.60;;;5.10;99.90;;;5.76;100.00;-19923.06;5032238;28;20236;-55
2022/04/09 00:07:41;;;;;;;3.30;2.73;;;5.10;99.90;;;5.82;100.00;-19925.13;5031874;28;20719;-57
2022/04/09 00:10:12;;;;;;;3.80;2.60;;;5.00;99.90;;;5.88;100.00;-19927.19;5032226;28;20220;-55
2022/04/09 00:12:44;;;;;;;3.20;2.87;;;5.10;99.90;;;5.77;100.00;-19923.41;5032435;28;20295;-57
2022/04/09 00:15:16;;;;;;;3.63;2.60;;;5.00;99.90;;;5.86;100.00;-19926.31;5032154;28;20309;-54
2022/04/09 00:17:46;;;;;;;2.87;2.50;;;5.00;99.90;;;5.77;100.00;-19923.25;5031990;28;20719;-58
2022/04/09 00:20:16;;;;;;;3.23;2.53;;;5.00;99.90;;;5.74;100.00;-19922.22;5032262;28;20319;-58
2022/04/09 00:22:45;;;;;;;3.40;3.10;;;5.00;99.90;;;5.71;100.00;-19921.38;5031920;28;20314;-55
2022/04/09 00:25:21;;;;;;;3.10;2.67;;;5.00;99.90;;;5.84;100.00;-19925.63;5031655;28;20600;-53
2022/04/09 00:27:49;;;;;;;3.60;3.20;;;5.00;99.90;;;5.71;100.00;-19921.38;5031359;28;20249;-54
2022/04/09 00:30:19;;;;;;;3.70;2.93;;;5.00;99.90;;;5.78;100.00;-19923.59;5031953;28;20263;-57
2022/04/09 00:32:47;;;;;;;3.47;3.00;;;5.00;99.90;;;6.00;100.00;-19931.13;5031730;28;20665;-56
2022/04/09 00:35:15;;;;;;;3.50;3.20;;;5.00;99.90;;;5.74;100.00;-19922.22;5031788;28;20239;-54
2022/04/09 00:37:45;;;;;;;3.80;3.30;;;5.00;99.90;;;5.75;100.00;-19922.56;5031380;28;20252;-55
2022/04/09 00:40:15;;;;;;;4.70;3.30;;;4.90;99.90;;;5.78;100.00;-19923.75;5031535;28;20720;-51
2022/04/09 00:42:43;;;;;;;3.87;3.27;;;5.00;99.90;;;5.79;100.00;-19923.94;5031916;28;20608;-55
2022/04/09 00:45:12;;;;;;;3.30;3.00;;;4.90;99.90;;;5.61;100.00;-19917.78;5031319;28;20255;-55
2022/04/09 00:47:42;;;;;;;3.73;3.00;;;5.00;99.90;;;5.67;100.00;-19920.00;5031365;28;20233;-54
2022/04/09 00:50:12;;;;;;;3.57;3.17;;;4.90;99.90;;;5.72;100.00;-19921.69;5031488;28;20220;-57
2022/04/09 00:52:47;;;;;;;3.77;3.40;;;4.90;99.90;;;5.60;100.00;-19917.44;5030845;28;20732;-57
2022/04/09 00:56:12;;;;;;;3.90;3.30;;;4.90;99.90;;;5.68;100.00;-19920.16;5031277;28;20289;-53
2022/04/09 00:58:14;;;;;;;3.70;3.17;;;4.90;99.90;;;5.75;100.00;-19922.56;5030844;28;20232;-55
2022/04/09 01:00:43;;;;;;;4.10;3.43;;;4.90;99.90;;;5.72;100.00;-19921.53;5031976;28;20191;-55
2022/04/09 01:03:18;;;;;;;3.93;3.33;;;4.90;99.90;;;5.63;100.00;-19918.47;5030952;28;20290;-54
2022/04/09 01:05:48;;;;;;;3.33;3.03;;;4.90;99.90;;;5.76;100.00;-19923.06;5031105;28;20235;-55
2022/04/09 01:08:17;;;;;;;4.77;3.70;;;4.90;99.90;;;5.81;100.00;-19924.59;5030981;28;20239;-53
2022/04/09 01:10:47;;;;;;;4.10;3.47;;;4.90;99.90;;;5.70;100.00;-19921.03;5031204;28;20241;-56
2022/04/09 01:13:16;;;;;;;4.57;3.77;;;5.00;99.90;;;5.90;100.00;-19927.84;5030804;28;20247;-52
2022/04/09 01:15:44;;;;;;;4.43;3.60;;;4.90;99.90;;;5.90;100.00;-19927.84;5031630;28;20263;-55
2022/04/09 01:18:15;;;;;;;4.00;3.60;;;5.00;99.90;;;5.71;100.00;-19921.38;5030574;28;20265;-55
2022/04/09 01:20:43;;;;;;;6.43;4.23;;;5.00;99.90;;;5.74;100.00;-19922.38;5030883;28;20256;-54
2022/04/09 01:23:13;;;;;;;4.70;4.30;;;5.00;99.90;;;5.77;100.00;-19923.41;5030685;28;20400;-57
2022/04/09 01:25:42;;;;;;;4.60;4.20;;;5.00;99.90;;;5.91;100.00;-19928.22;5030442;28;20814;-53
2022/04/09 01:28:10;;;;;;;5.60;5.07;;;5.00;99.90;;;5.91;100.00;-19928.22;5030411;28;20675;-53
2022/04/09 01:30:38;;;;;;;5.93;4.63;;;5.10;99.90;;;5.85;100.00;-19926.16;5031470;28;20213;-58
2022/04/09 01:33:06;;;;;;;5.87;5.33;;;5.10;99.90;;;5.80;100.00;-19924.44;5030390;28;20312;-55
2022/04/09 01:35:34;;;;;;;6.17;5.27;;;5.10;99.90;;;5.77;100.00;-19923.41;5030554;28;20324;-54
2022/04/09 01:38:02;;;;;;;6.03;5.33;;;5.00;99.90;;;5.67;100.00;-19920.00;5030209;28;20248;-55
2022/04/09 01:40:31;;;;;;;6.43;5.80;;;5.00;99.90;;;5.63;100.00;-19918.47;5030443;28;20231;-55
2022/04/09 01:42:59;;;;;;;7.87;6.23;;;5.00;99.90;;;5.74;100.00;-19922.22;5030301;28;20204;-56
2022/04/09 01:45:28;;;;;;;7.10;6.40;;;5.00;99.90;;;5.69;100.00;-19920.69;5030652;28;20616;-56
2022/04/09 01:47:56;;;;;;;7.87;7.00;;;5.00;99.90;;;5.84;100.00;-19925.63;5030320;28;20827;-54
2022/04/09 01:50:26;;;;;;;9.00;6.90;;;5.00;99.90;;;5.76;100.00;-19923.06;5030234;28;20225;-53
2022/04/09 01:52:54;;;;;;;9.27;7.30;;;5.00;99.90;;;5.81;100.00;-19924.78;5030221;28;20404;-55
2022/04/09 01:55:23;;;;;;;8.33;7.40;;;5.10;99.90;;;5.91;100.00;-19928.22;5030075;28;20786;-56
2022/04/09 01:57:52;;;;;;;8.80;7.63;;;5.10;99.90;;;5.82;100.00;-19925.13;5030506;28;20790;-54
2022/04/09 02:00:22;;;;;;;9.00;6.73;;;5.10;99.90;;;5.87;100.00;-19926.66;5030349;28;20674;-54
2022/04/09 02:02:50;;;;;;;7.60;6.80;;;5.10;99.90;;;5.94;100.00;-19929.22;5030086;28;20239;-54
2022/04/09 02:05:20;;;;;;;9.70;7.00;;;5.10;99.90;;;5.84;100.00;-19925.63;5029902;28;20354;-56
2022/04/09 02:07:49;;;;;;;6.73;5.90;;;5.10;99.90;;;5.85;100.00;-19926.16;5029937;28;20637;-55
2022/04/09 02:10:18;;;;;;;8.27;5.43;;;5.10;99.90;;;5.95;100.00;-19929.41;5030238;28;20224;-56
2022/04/09 02:12:47;;;;;;;6.43;5.67;;;5.10;99.90;;;5.98;100.00;-19930.44;5030595;28;20226;-56
2022/04/09 02:15:18;;;;;;;6.83;5.23;;;5.10;99.90;;;6.06;100.00;-19933.34;5029992;28;20230;-56
2022/04/09 02:17:46;;;;;;;6.37;4.60;;;5.20;99.90;;;6.03;100.00;-19932.31;5030132;28;20310;-55
2022/04/09 02:20:15;;;;;;;6.60;4.60;;;5.20;99.90;;;5.90;100.00;-19927.84;5030001;28;20662;-54
2022/04/09 02:22:46;;;;;;;5.40;4.60;;;5.10;99.90;;;5.82;100.00;-19925.13;5029840;28;20246;-54
2022/04/09 02:25:17;;;;;;;8.43;4.10;;;5.10;99.90;;;5.91;100.00;-19928.03;5029680;28;20707;-56
2022/04/09 02:27:45;;;;;;;6.03;4.07;;;5.10;99.90;;;5.61;100.00;-19917.78;5030514;28;20188;-56
2022/04/09 02:30:15;;;;;;;6.70;4.20;;;5.00;99.90;;;5.82;100.00;-19925.13;5029648;28;20722;-55
2022/04/09 02:32:48;;;;;;;5.50;3.83;;;5.00;99.90;;;5.62;100.00;-19918.28;5029842;28;20258;-55
2022/04/09 02:35:18;;;;;;;5.63;3.90;;;5.00;99.90;;;5.70;100.00;-19920.84;5029809;28;20228;-56
2022/04/09 02:37:47;;;;;;;7.07;4.17;;;4.90;99.90;;;5.78;100.00;-19923.59;5029931;28;20314;-52
2022/04/09 02:40:15;;;;;;;7.20;4.23;;;4.90;99.90;;;5.69;100.00;-19920.50;5030270;28;20233;-56
2022/04/09 02:42:44;;;;;;;5.30;3.80;;;4.90;99.90;;;5.49;100.00;-19913.84;5030575;28;20244;-57
2022/04/09 02:45:13;;;;;;;6.67;4.37;;;4.90;99.90;;;5.43;100.00;-19911.63;5029839;28;20405;-55
2022/04/09 02:47:42;;;;;;;7.23;3.90;;;4.80;99.90;;;5.52;100.00;-19914.88;5030050;28;20310;-57
2022/04/09 02:50:12;;;;;;;6.13;4.03;;;4.80;99.90;;;5.49;100.00;-19913.84;5030725;28;20223;-55
2022/04/09 02:52:41;;;;;;;7.73;4.20;;;4.70;99.90;;;5.55;100.00;-19915.72;5033811;28;20254;-53
2022/04/09 02:55:10;;;;;;;6.37;4.20;;;4.70;99.90;;;5.45;100.00;-19912.31;5033633;28;20296;-55
2022/04/09 02:57:40;;;;;;;7.10;4.37;;;4.70;99.90;;;5.47;100.00;-19912.97;5034137;28;20204;-54
2022/04/09 03:00:12;;;;;;;6.40;4.17;;;4.70;99.90;;;5.72;100.00;-19921.53;5033661;28;20726;-56
2022/04/09 03:02:42;;;;;;;5.83;4.30;;;4.80;99.90;;;5.62;100.00;-19918.13;5033758;28;20654;-56
2022/04/09 03:05:13;;;;;;;5.03;4.47;;;4.80;99.90;;;5.79;100.00;-19923.94;5033654;28;20252;-55
2022/04/09 03:07:41;;;;;;;5.00;4.43;;;4.90;99.90;;;5.82;100.00;-19925.13;5033643;28;20229;-56
2022/04/09 03:10:10;;;;;;;5.43;4.13;;;4.90;99.90;;;5.84;100.00;-19925.81;5033599;28;20233;-58
2022/04/09 03:12:43;;;;;;;5.63;4.40;;;5.00;99.90;;;5.98;100.00;-19930.44;5034269;28;20414;-54
2022/04/09 03:15:12;;;;;;;6.80;4.87;;;5.00;99.90;;;5.97;100.00;-19930.09;5033685;28;20311;-56
2022/04/09 03:17:40;;;;;;;7.93;4.57;;;5.00;99.90;;;5.75;100.00;-19922.56;5033481;28;20315;-56
2022/04/09 03:20:11;;;;;;;7.50;4.77;;;5.00;99.90;;;5.80;100.00;-19924.44;5033454;28;20228;-55
2022/04/09 03:22:45;;;;;;;8.63;4.90;;;5.00;99.90;;;5.85;100.00;-19925.97;5033331;28;20253;-59
2022/04/09 03:25:14;;;;;;;7.17;4.43;;;5.00;99.90;;;6.04;100.00;-19932.66;5033265;28;20274;-56
2022/04/09 03:27:42;;;;;;;7.93;4.43;;;5.10;99.90;;;6.18;100.00;-19937.25;5033839;28;20296;-57
2022/04/09 03:30:11;;;;;;;8.43;4.40;;;5.20;99.90;;;6.15;100.00;-19936.25;5033644;28;20233;-55
2022/04/09 03:32:42;;;;;;;11.23;4.27;;;5.30;99.90;;;6.34;99.59;-19942.72;5033205;28;20231;-54
2022/04/09 03:35:13;;;;;;;5.70;3.60;;;5.30;99.90;;;6.34;99.53;-19942.56;5032960;28;20761;-54
2022/04/09 03:37:41;;;;;;;6.43;3.30;;;5.40;99.90;;;6.14;100.00;-19936.06;5033082;28;20794;-57
2022/04/09 03:40:12;;;;;;;4.87;3.33;;;5.40;99.90;;;6.43;98.81;-19945.81;5033240;28;20251;-56
2022/04/09 03:42:40;;;;;;;4.90;3.37;;;5.40;99.90;;;6.35;98.17;-19943.06;5033644;28;20189;-54
2022/04/09 03:45:10;;;;;;;4.30;3.00;;;5.40;99.90;;;6.30;99.00;-19941.38;5033221;28;20315;-55
2022/04/09 03:47:38;;;;;;;4.63;3.17;;;5.50;99.90;;;6.31;98.22;-19941.53;5032964;28;20234;-56
2022/04/09 03:50:07;;;;;;;5.83;3.10;;;5.50;99.90;;;6.29;98.61;-19941.03;5032883;28;20230;-54
2022/04/09 03:52:36;;;;;;;6.70;2.97;;;5.40;99.90;;;6.40;96.46;-19944.78;5032603;28;20308;-55
2022/04/09 03:55:05;;;;;;;7.63;3.13;;;5.50;99.90;;;6.43;97.55;-19945.81;5033040;28;20292;-54
2022/04/09 03:57:33;;;;;;;6.93;3.47;;;5.50;99.90;;;6.40;96.72;-19944.59;5033038;28;20201;-54
2022/04/09 04:00:01;;;;;;;6.40;3.40;;;5.60;99.90;;;6.42;97.22;-19945.28;5032581;28;20315;-55
2022/04/09 04:02:29;;;;;;;8.37;2.97;;;5.50;99.90;;;6.44;97.85;-19945.97;5032338;28;20323;-55
2022/04/09 04:05:02;;;;;;;5.93;3.00;;;5.60;99.90;;;6.38;97.19;-19943.94;5032250;28;20220;-55
2022/04/09 04:07:31;;;;;;;4.60;2.63;;;5.60;99.90;;;6.27;97.27;-19940.16;5032376;28;20251;-52
2022/04/09 04:10:04;;;;;;;6.00;3.00;;;5.50;99.90;;;6.11;98.94;-19934.88;5032639;28;20294;-57
2022/04/09 04:12:32;;;;;;;5.07;2.97;;;5.40;99.90;;;6.09;99.48;-19934.19;5032743;28;20570;-59
2022/04/09 04:15:00;;;;;;;4.83;2.80;;;5.30;99.90;;;5.99;98.97;-19930.94;5032110;28;20621;-53
2022/04/09 04:17:28;;;;;;;4.83;2.90;;;5.30;99.90;;;5.86;99.93;-19926.50;5032150;28;20227;-56
2022/04/09 04:19:56;;;;;;;5.97;2.70;;;5.20;99.90;;;5.71;100.00;-19921.38;5032434;28;20305;-54
2022/04/09 04:22:24;;;;;;;6.20;2.70;;;5.10;99.90;;;5.92;97.06;-19928.38;5032075;28;20303;-54
2022/04/09 04:24:52;;;;;;;5.90;2.50;;;5.20;99.90;;;6.03;95.84;-19932.31;5032563;28;20231;-59
2022/04/09 04:27:21;;;;;;;5.70;2.57;;;5.20;99.90;;;6.06;95.24;-19933.16;5032434;28;20237;-57
2022/04/09 04:29:49;;;;;;;5.53;2.27;;;5.20;99.90;;;6.14;94.52;-19936.06;5032209;28;20233;-55
2022/04/09 04:32:17;;;;;;;4.17;2.20;;;5.30;99.90;;;6.36;92.43;-19943.41;5031945;28;20249;-54
2022/04/09 04:34:50;;;;;;;6.20;2.33;;;5.40;99.90;;;6.15;92.20;-19936.25;5032010;28;20763;-58
2022/04/09 04:37:17;;;;;;;4.77;2.33;;;5.40;99.90;;;6.28;92.44;-19940.69;5031942;28;20235;-60
2022/04/09 04:39:45;;;;;;;5.67;2.40;;;5.40;99.90;;;6.49;90.84;-19947.69;5032531;28;20640;-61
2022/04/09 04:42:13;;;;;;;6.23;2.20;;;5.50;99.90;;;6.39;89.83;-19944.44;5031445;28;20334;-58
2022/04/09 04:44:43;;;;;;;3.33;1.83;;;5.50;99.90;;;6.20;91.88;-19937.94;5031905;28;20229;-60
2022/04/09 04:47:11;;;;;;;5.20;2.20;;;5.50;99.90;;;6.51;90.86;-19948.38;5031633;28;20264;-60
2022/04/09 04:49:39;;;;;;;5.87;2.90;;;5.50;99.90;;;6.56;89.85;-19950.09;5031706;28;20221;-59
2022/04/09 04:52:07;;;;;;;3.50;2.20;;;5.50;99.90;;;6.49;89.98;-19947.84;5031215;28;20757;-60
2022/04/09 04:54:36;;;;;;;4.50;2.50;;;5.50;99.90;;;6.37;91.00;-19943.59;5032179;28;20288;-60
2022/04/09 04:57:04;;;;;;;5.20;2.40;;;5.50;99.90;;;6.48;91.31;-19947.50;5031303;28;20236;-60
2022/04/09 04:59:32;;;;;;;6.23;2.37;;;5.50;99.90;;;6.43;92.00;-19945.63;5031558;28;20228;-60
2022/04/09 05:02:02;;;;;;;8.33;2.93;;;5.60;99.90;;;6.42;91.97;-19945.47;5031355;28;20225;-59
2022/04/09 05:04:30;;;;;;;4.80;2.50;;;5.60;99.90;;;6.41;91.76;-19945.13;5031352;28;20725;-59
2022/04/09 05:06:58;;;;;;;4.83;2.50;;;5.60;99.90;;;6.70;91.23;-19954.84;5031352;28;20232;-60
2022/04/09 05:09:26;;;;;;;5.53;2.07;;;5.70;99.90;;;6.77;90.73;-19957.44;5031559;28;20751;-60
2022/04/09 05:11:53;;;;;;;5.80;2.47;;;5.70;99.90;;;6.61;91.44;-19951.97;5027757;28;20249;-61
2022/04/09 05:14:21;;;;;;;4.77;2.80;;;5.70;99.90;;;6.76;91.14;-19956.91;5030488;28;20279;-59
2022/04/09 05:16:49;;;;;;;6.43;3.00;;;5.70;99.90;;;6.82;90.45;-19959.13;5031202;28;20242;-59
2022/04/09 05:19:19;;;;;;;6.63;3.77;;;5.80;99.90;;;6.71;92.27;-19955.22;5031199;28;20241;-60
2022/04/09 05:21:48;;;;;;;5.90;4.90;;;5.80;99.90;;;6.53;93.29;-19949.22;5031705;28;20205;-60
2022/04/09 05:24:16;;;;;;;6.80;5.47;;;5.70;99.90;;;6.48;94.95;-19947.50;5031133;28;20251;-60
2022/04/09 05:26:44;;;;;;;8.73;6.00;;;5.60;99.90;;;6.57;95.21;-19950.59;5030773;28;20240;-58
2022/04/09 05:29:12;;;;;;;8.70;6.40;;;5.60;99.90;;;6.40;95.86;-19944.78;5030905;28;20255;-60
2022/04/09 05:31:42;;;;;;;11.27;6.90;;;5.60;99.90;;;6.39;97.93;-19944.28;5031108;28;20315;-59
2022/04/09 05:34:10;;;;;;;9.47;7.43;;;5.50;99.90;;;6.31;98.20;-19941.69;5030709;28;20584;-59
2022/04/09 05:36:39;;;;;;;8.90;6.83;;;5.60;99.90;;;6.38;98.57;-19944.09;5031261;28;20196;-61
2022/04/09 05:39:07;;;;;;;8.60;6.43;;;5.50;99.90;;;6.54;97.96;-19949.56;5030183;28;20320;-60
2022/04/09 05:41:35;;;;;;;7.30;6.17;;;5.60;99.90;;;6.52;99.05;-19948.88;5030484;28;20239;-60
2022/04/09 05:44:03;;;;;;;7.80;6.33;;;5.60;99.90;;;6.54;100.00;-19949.56;5030297;28;20310;-59
2022/04/09 05:46:31;;;;;;;10.27;6.40;;;5.60;99.90;;;6.90;100.00;-19961.88;5030522;28;20317;-58
2022/04/09 05:49:05;;;;;;;7.80;5.67;;;5.70;99.90;;;6.90;99.87;-19961.88;5030295;28;20599;-59
2022/04/09 05:51:34;;;;;;;6.93;5.80;;;5.80;99.90;;;6.90;100.00;-19961.88;5030760;28;20212;-60
2022/04/09 05:54:03;;;;;;;8.13;5.47;;;5.80;99.90;;;6.92;100.00;-19962.38;5029997;28;20225;-59
2022/04/09 05:56:32;;;;;;;9.27;5.00;;;5.90;99.90;;;6.90;100.00;-19961.88;5030281;28;20316;-58
2022/04/09 05:59:00;;;;;;;7.40;5.30;;;6.00;99.90;;;7.05;98.57;-19966.81;5029788;28;20311;-59
2022/04/09 06:01:46;;;;;;;8.27;4.73;;;6.00;99.90;;;6.98;98.58;-19964.44;5030136;28;20221;-58
2022/04/09 06:04:19;;;;;;;6.67;4.47;;;6.00;99.90;;;6.84;99.80;-19959.66;5029908;28;20240;-59
2022/04/09 06:06:47;;;;;;;6.50;4.57;;;6.00;99.90;;;6.66;100.00;-19953.66;5030033;28;20200;-58
2022/04/09 06:09:17;;;;;;;9.67;4.33;;;5.90;99.90;;;6.50;100.00;-19948.19;5029597;28;20282;-58
2022/04/09 06:11:45;;;;;;;5.93;4.50;;;5.70;99.90;;;6.44;100.00;-19945.97;5030126;28;20260;-59
2022/04/09 06:14:15;;;;;;;8.57;4.63;;;5.70;99.90;;;6.69;100.00;-19954.69;5029532;28;20225;-60
2022/04/09 06:16:44;;;;;;;6.47;4.43;;;5.60;99.90;;;6.51;100.00;-19948.38;5030079;28;20438;-60
2022/04/09 06:19:12;;;;;;;7.13;4.47;;;5.70;99.90;;;6.58;100.00;-19950.94;5029993;28;20333;-59
2022/04/09 06:21:40;;;;;;;6.37;4.47;;;5.60;99.90;;;6.64;100.00;-19952.97;5030786;28;20215;-60
2022/04/09 06:24:08;;;;;;;5.37;4.87;;;5.70;99.90;;;6.71;100.00;-19955.38;5029580;28;20235;-59
2022/04/09 06:26:38;;;;;;;6.67;4.30;;;5.70;99.90;;;6.77;100.00;-19957.25;5032871;28;20308;-60
2022/04/09 06:29:06;;;;;;;6.97;4.63;;;5.80;99.90;;;7.07;100.00;-19967.69;5033750;28;20315;-60
2022/04/09 06:31:34;;;;;;;8.87;4.20;;;5.80;99.90;;;7.06;100.00;-19967.34;5033810;28;20230;-59
2022/04/09 06:34:02;;;;;;;7.67;3.63;;;5.80;99.90;;;7.00;100.00;-19965.13;5033636;28;20673;-60
2022/04/09 06:36:30;;;;;;;7.07;3.90;;;5.90;99.90;;;6.96;100.00;-19963.75;5034566;28;20280;-59
2022/04/09 06:38:58;;;;;;;5.53;3.40;;;5.90;99.90;;;6.87;100.00;-19960.84;5033627;28;20231;-61
2022/04/09 06:41:26;;;;;;;8.03;3.87;;;5.90;99.90;;;6.89;100.00;-19961.53;5033742;28;20664;-57
2022/04/09 06:43:56;;;;;;;6.07;3.40;;;6.00;99.90;;;6.83;100.00;-19959.31;5033626;28;20259;-60
2022/04/09 06:46:24;;;;;;;6.43;3.40;;;5.90;99.90;;;6.87;100.00;-19960.66;5033813;28;20249;-59
2022/04/09 06:48:52;;;;;;;3.87;3.10;;;6.00;99.90;;;6.98;100.00;-19964.44;5033714;28;20221;-58
2022/04/09 06:51:22;;;;;;;5.87;2.90;;;6.00;99.90;;;7.00;100.00;-19965.13;5034125;28;20220;-60
2022/04/09 06:53:50;;;;;;;6.23;3.60;;;6.00;99.90;;;7.14;100.00;-19970.06;5033378;28;20235;-59
2022/04/09 06:56:18;;;;;;;6.23;3.40;;;6.10;99.90;;;7.33;100.00;-19976.56;5017410;28;20230;-61
2022/04/09 06:58:46;;;;;;;7.13;3.50;;;6.20;99.90;;;7.54;98.83;-19983.41;5013511;28;20249;-59
2022/04/09 07:01:15;;;;;;;5.83;2.70;;;6.30;99.90;;;7.66;96.00;-19987.66;5013879;28;20256;-60
2022/04/09 07:03:44;;;;;;;5.33;3.03;;;6.40;99.90;;;7.82;94.21;-19992.97;5024921;28;20209;-58
2022/04/09 07:06:13;;;;;;;4.67;2.63;;;6.50;99.90;;;7.56;93.99;-19984.09;5033323;28;20308;-60
2022/04/09 07:08:41;;;;;;;5.13;2.50;;;6.50;99.90;;;7.47;91.98;-19981.00;5033085;28;20244;-61
2022/04/09 07:11:09;;;;;;;4.33;2.50;;;6.50;99.90;;;7.55;93.88;-19983.75;5033194;28;20225;-59
2022/04/09 07:13:37;;;;;;;8.50;2.90;;;6.60;99.90;;;7.65;93.79;-19987.34;5032924;28;20227;-59
2022/04/09 07:16:06;;;;;;;5.97;2.53;;;6.60;99.90;;;7.84;90.23;-19993.66;5033117;28;20198;-60
2022/04/09 07:18:37;;;;;;;3.53;2.43;;;6.70;99.90;;;8.02;89.40;-19999.81;5033904;28;20178;-59
2022/04/09 07:21:05;;;;;;;5.03;2.43;;;6.90;99.90;;;8.02;88.38;-19999.97;5033009;28;20771;-60
2022/04/09 07:23:33;;;;;;;5.37;2.17;;;7.00;99.90;;;7.94;86.85;-19997.25;5032956;28;20230;-59
2022/04/09 07:26:02;;;;;;;5.40;2.50;;;7.00;99.90;;;8.10;85.76;-20002.72;5033082;28;20657;-61
2022/04/09 07:28:30;;;;;;;4.33;2.40;;;7.00;99.90;;;8.64;85.53;-20021.00;5033016;28;20241;-60
2022/04/09 07:30:58;;;;;;;5.10;2.33;;;7.30;99.90;;;8.96;80.40;-20031.94;5032932;28;20205;-60
2022/04/09 07:33:25;;;;;;;4.37;2.17;;;7.40;99.90;;;9.03;79.10;-20034.31;5033380;28;20210;-60
2022/04/09 07:35:57;;;;;;;4.07;2.20;;;7.70;99.90;;;8.97;76.65;-20032.28;5032256;28;20222;-61
2022/04/09 07:38:25;;;;;;;5.03;2.00;;;7.70;99.90;;;9.23;75.64;-20040.97;5032601;28;20697;-60
2022/04/09 07:40:54;;;;;;;2.17;1.97;;;7.90;99.90;;;9.33;73.10;-20044.41;5032787;28;20224;-61
2022/04/09 07:43:22;;;;;;;3.97;1.80;;;7.90;99.90;;;9.55;71.44;-20051.91;5033305;28;20268;-60
2022/04/09 07:45:50;;;;;;;3.60;1.97;;;8.10;99.90;;;9.79;68.73;-20060.28;5033150;28;20672;-59
2022/04/09 07:48:20;;;;;;;3.83;2.30;;;8.30;99.90;;;10.04;70.17;-20068.47;5032916;28;20228;-60
2022/04/09 07:50:48;;;;;;;5.13;2.07;;;8.40;99.90;;;9.80;71.26;-20060.63;5032298;28;20312;-60
2022/04/09 07:53:17;;;;;;;2.30;1.73;;;8.50;99.90;;;9.78;65.13;-20059.78;5029271;28;20226;-60
2022/04/09 07:55:45;;;;;;;5.23;1.90;;;8.40;99.90;;;9.53;67.90;-20051.41;5029854;28;20325;-57
2022/04/09 07:58:14;;;;;;;3.53;1.80;;;8.30;99.90;;;9.53;69.27;-20051.41;5032814;28;20236;-59
2022/04/09 08:00:44;;;;;;;3.43;2.03;;;8.30;99.90;;;9.53;70.29;-20051.41;5033117;28;20709;-58
2022/04/09 08:03:12;;;;;;;5.40;1.90;;;8.20;99.90;;;9.61;67.87;-20054.13;5032511;28;20232;-60
2022/04/09 08:05:40;;;;;;;5.70;1.67;;;8.20;99.90;;;9.54;68.08;-20051.75;5032507;28;20234;-58
2022/04/09 08:08:08;;;;;;;4.53;1.90;;;8.20;99.90;;;9.86;69.51;-20062.50;5032221;28;20316;-58
2022/04/09 08:10:39;;;;;;;2.63;1.80;;;8.20;99.90;;;9.86;68.05;-20062.50;5032327;28;20304;-60
2022/04/09 08:13:07;;;;;;;4.43;1.70;;;8.40;99.90;;;10.01;68.35;-20067.63;5032551;28;20303;-60
2022/04/09 08:15:37;;;;;;;3.20;1.80;;;8.50;99.90;;;10.00;66.12;-20067.13;5033238;28;20302;-59
2022/04/09 08:18:05;;;;;;;3.23;1.70;;;8.50;99.90;;;10.02;67.71;-20067.97;5032538;28;20328;-61
2022/04/09 08:20:53;;;;;;;3.63;1.53;;;8.60;99.90;;;10.09;65.28;-20070.38;5032511;28;20246;-60
2022/04/09 08:23:21;;;;;;;3.13;1.87;;;8.70;99.90;;;10.18;64.44;-20073.28;5032193;28;20741;-61
2022/04/09 08:25:51;;;;;;;4.57;1.97;;;8.70;99.90;;;9.99;64.10;-20066.94;5031984;28;20590;-60
2022/04/09 08:28:20;;;;;;;4.07;1.97;;;8.70;99.90;;;10.15;64.54;-20072.25;5032233;28;20749;-61
2022/04/09 08:30:48;;;;;;;4.53;1.60;;;8.80;99.90;;;10.39;63.24;-20080.63;5032881;28;20216;-61
2022/04/09 08:33:16;;;;;;;2.83;1.63;;;8.80;99.90;;;10.43;62.77;-20081.81;5032255;28;20789;-60
2022/04/09 08:35:44;;;;;;;1.60;1.50;;;8.80;99.90;;;10.51;61.92;-20084.72;5032172;28;20473;-59
2022/04/09 08:38:12;;;;;;;3.37;1.77;;;8.90;99.90;;;10.33;62.06;-20078.56;5025294;28;20284;-60
2022/04/09 08:40:41;;;;;;;1.83;1.30;;;8.90;99.90;;;10.14;63.15;-20071.91;5031642;28;20309;-60
2022/04/09 08:43:11;;;;;;;3.00;1.60;;;8.90;99.90;;;9.69;65.44;-20056.69;5031720;28;20352;-59
2022/04/09 08:45:41;;;;;;;4.47;1.83;;;8.60;99.90;;;9.37;66.00;-20045.78;5031861;28;20722;-59
2022/04/09 08:48:11;;;;;;;2.07;1.57;;;8.50;99.90;;;9.53;66.92;-20051.22;5030672;28;20266;-59
2022/04/09 08:50:44;;;;;;;3.43;1.40;;;8.40;99.90;;;9.79;65.71;-20060.13;5031453;28;20256;-61
2022/04/09 08:53:12;;;;;;;3.20;2.13;;;8.50;99.90;;;10.05;65.51;-20069.00;5030922;28;20777;-59
2022/04/09 08:55:41;;;;;;;5.63;1.53;;;8.70;99.90;;;10.13;64.89;-20071.72;5031114;28;20249;-59
2022/04/09 08:58:10;;;;;;;3.80;1.57;;;8.80;99.90;;;10.33;62.88;-20078.41;5031342;28;20293;-62
2022/04/09 09:00:38;;;;;;;4.00;1.30;;;9.00;99.90;;;10.66;60.97;-20089.84;5031398;28;20293;-60
2022/04/09 09:03:10;;;;;;;2.43;1.20;;;9.20;99.90;;;10.84;59.40;-20095.81;5030934;28;20301;-61
2022/04/09 09:05:41;;;;;;;2.67;1.57;;;9.40;99.90;;;10.84;58.86;-20095.81;5031115;28;20240;-61
2022/04/09 09:08:11;;;;;;;40.80;3.50;;;9.50;99.90;;;10.98;58.01;-20100.78;5030985;28;20238;-61
2022/04/09 09:10:40;;;;;;;1.53;1.10;;;9.60;99.90;;;10.95;57.08;-20099.56;5030839;28;20222;-62
2022/04/09 09:13:12;;;;;;;4.13;1.40;;;9.50;99.90;;;11.33;57.02;-20112.38;5030820;28;20214;-63
2022/04/09 09:15:48;;;;;;;4.60;1.40;;;9.70;99.90;;;10.98;57.82;-20100.59;5031306;28;20186;-61
2022/04/09 09:18:22;;;;;;;3.23;1.57;;;9.60;99.90;;;10.52;59.14;-20084.88;5030704;28;20226;-61
2022/04/09 09:20:52;;;;;;;3.93;1.33;;;9.50;99.90;;;9.71;64.77;-20057.38;5032996;28;20301;-60
2022/04/09 09:23:21;;;;;;;3.03;1.63;;;9.00;99.90;;;9.34;68.06;-20044.75;5030713;28;20256;-61
2022/04/09 09:25:50;;;;;;;2.57;1.70;;;8.60;99.90;;;9.27;64.91;-20042.34;5030659;28;20217;-61
2022/04/09 09:28:29;;;;;;;2.37;1.50;;;8.40;99.90;;;9.75;65.02;-20058.75;5030480;28;20305;-62
2022/04/09 09:30:58;;;;;;;3.17;1.77;;;8.50;99.90;;;9.61;62.92;-20053.97;5030737;28;20651;-61
2022/04/09 09:33:27;;;;;;;2.27;1.60;;;8.50;99.90;;;9.54;63.63;-20051.75;5030938;28;20210;-61
2022/04/09 09:36:16;;;;;;;2.53;1.50;;;8.50;99.90;;;9.46;64.91;-20049.00;5030228;28;20527;-62
2022/04/09 09:38:45;;;;;;;3.50;1.90;;;8.40;99.90;;;9.40;66.64;-20046.97;5030460;28;20317;-61
2022/04/09 09:41:24;;;;;;;3.73;1.93;;;8.30;99.90;;;9.25;67.52;-20041.66;5030351;28;20257;-61
2022/04/09 09:44:05;;;;;;;2.10;1.47;;;8.20;99.90;;;9.12;68.30;-20037.22;5030253;28;20226;-61
2022/04/09 09:46:35;;;;;;;2.70;1.97;;;8.20;99.90;;;9.15;69.42;-20038.25;5030209;28;20747;-63
2022/04/09 09:49:03;;;;;;;3.50;2.07;;;8.10;99.90;;;9.14;71.62;-20037.91;5030503;28;20293;-61
2022/04/09 09:51:31;;;;;;;2.77;1.60;;;8.10;99.90;;;9.12;71.70;-20037.41;5030332;28;20213;-62
2022/04/09 09:54:07;;;;;;;3.30;1.63;;;8.10;99.90;;;8.84;71.82;-20027.66;5030190;28;20226;-61
2022/04/09 09:56:39;;;;;;;4.53;2.23;;;7.90;99.90;;;8.01;77.38;-19999.47;5030051;28;20678;-61
2022/04/09 09:59:10;;;;;;;5.77;1.90;;;7.40;99.90;;;7.57;82.49;-19984.44;5029876;28;20653;-61
2022/04/09 10:01:41;;;;;;;4.13;2.40;;;7.00;99.90;;;7.39;85.90;-19978.63;5030373;28;20222;-62
2022/04/09 10:04:12;;;;;;;3.80;1.97;;;6.80;99.90;;;7.29;87.70;-19975.03;5030470;28;20240;-60
2022/04/09 10:06:43;;;;;;;3.17;1.90;;;6.60;99.90;;;7.23;88.29;-19972.97;5030711;28;20181;-60
2022/04/09 10:09:14;;;;;;;3.40;2.10;;;6.50;99.90;;;7.14;93.14;-19970.06;5030011;28;20324;-61
2022/04/09 10:11:47;;;;;;;2.87;1.97;;;6.60;99.90;;;7.31;91.51;-19975.88;5029925;28;20236;-62
2022/04/09 10:14:23;;;;;;;2.83;2.33;;;6.60;99.90;;;7.52;91.50;-19982.72;5030019;28;20268;-60
2022/04/09 10:16:52;;;;;;;4.67;2.20;;;6.80;99.90;;;7.80;93.49;-19992.47;5030022;28;20681;-60
2022/04/09 10:19:25;;;;;;;2.97;2.00;;;6.90;99.90;;;8.35;85.36;-20011.09;5030385;28;20653;-61
2022/04/09 10:21:54;;;;;;;3.30;1.50;;;7.30;99.90;;;8.93;77.13;-20030.72;5029835;28;20605;-60
2022/04/09 10:24:28;;;;;;;2.73;1.40;;;7.70;99.90;;;9.61;72.05;-20054.13;5030870;28;20408;-60
2022/04/09 10:26:58;;;;;;;2.13;1.40;;;8.20;99.90;;;9.77;67.48;-20059.44;5029743;28;20771;-62
2022/04/09 10:29:27;;;;;;;2.20;1.90;;;8.50;99.90;;;9.70;68.00;-20057.22;5029981;28;20262;-61
2022/04/09 10:31:55;;;;;;;2.60;1.40;;;8.60;99.90;;;9.29;65.74;-20043.19;5030166;28;20321;-62